sensor_id;sensor_type;location;lat;lon;timestamp;pressure;altitude;pressure_sealevel;temperature;humidity
9899;BME280;4988;49.238;6.698;2022-07-23T00:01:25;99124.16;;;21.62;85.89
9899;BME280;4988;49.238;6.698;2022-07-23T00:03:52;99108.75;;;21.62;86.18
9899;BME280;4988;49.238;6.698;2022-07-23T00:06:19;99111.59;;;21.51;88.96
9899;BME280;4988;49.238;6.698;2022-07-23T00:08:44;99131.09;;;21.25;91.67
9899;BME280;4988;49.238;6.698;2022-07-23T00:11:10;99152.84;;;21.04;93.02
9899;BME280;4988;49.238;6.698;2022-07-23T00:13:36;99180.38;;;20.78;91.65
9899;BME280;4988;49.238;6.698;2022-07-23T00:16:01;99204.03;;;20.65;93.70
9899;BME280;4988;49.238;6.698;2022-07-23T00:18:27;99218.69;;;20.41;93.54
9899;BME280;4988;49.238;6.698;2022-07-23T00:20:52;99234.25;;;20.28;96.64
9899;BME280;4988;49.238;6.698;2022-07-23T00:23:18;99237.88;;;20.17;98.17
9899;BME280;4988;49.238;6.698;2022-07-23T00:25:43;99243.66;;;20.12;100.00
9899;BME280;4988;49.238;6.698;2022-07-23T00:28:10;99250.56;;;20.05;100.00
9899;BME280;4988;49.238;6.698;2022-07-23T00:30:36;99228.81;;;20.06;100.00
9899;BME280;4988;49.238;6.698;2022-07-23T00:33:05;99208.00;;;20.18;100.00
9899;BME280;4988;49.238;6.698;2022-07-23T00:35:34;99201.16;;;20.35;100.00
9899;BME280;4988;49.238;6.698;2022-07-23T00:38:00;99191.06;;;20.59;100.00
9899;BME280;4988;49.238;6.698;2022-07-23T00:40:27;99181.13;;;20.69;100.00
9899;BME280;4988;49.238;6.698;2022-07-23T00:42:53;99160.69;;;20.76;100.00
9899;BME280;4988;49.238;6.698;2022-07-23T00:45:19;99151.16;;;20.72;100.00
9899;BME280;4988;49.238;6.698;2022-07-23T00:47:44;99137.63;;;20.72;100.00
9899;BME280;4988;49.238;6.698;2022-07-23T00:50:11;99132.06;;;20.73;100.00
9899;BME280;4988;49.238;6.698;2022-07-23T00:52:38;99120.13;;;20.76;99.45
9899;BME280;4988;49.238;6.698;2022-07-23T00:55:05;99124.53;;;20.77;99.81
9899;BME280;4988;49.238;6.698;2022-07-23T00:57:30;99116.53;;;20.76;100.00
9899;BME280;4988;49.238;6.698;2022-07-23T00:59:56;99103.75;;;20.87;99.74
9899;BME280;4988;49.238;6.698;2022-07-23T01:02:23;99100.78;;;20.91;99.12
9899;BME280;4988;49.238;6.698;2022-07-23T01:04:49;99090.66;;;20.93;98.82
9899;BME280;4988;49.238;6.698;2022-07-23T01:07:14;99085.69;;;20.88;97.87
9899;BME280;4988;49.238;6.698;2022-07-23T01:09:40;99087.81;;;20.84;97.62
9899;BME280;4988;49.238;6.698;2022-07-23T01:12:06;99093.22;;;20.84;97.28
9899;BME280;4988;49.238;6.698;2022-07-23T01:14:32;99103.72;;;20.78;98.79
9899;BME280;4988;49.238;6.698;2022-07-23T01:16:57;99101.91;;;20.78;100.00
9899;BME280;4988;49.238;6.698;2022-07-23T01:19:22;99101.63;;;20.81;100.00
9899;BME280;4988;49.238;6.698;2022-07-23T01:21:50;99107.91;;;20.82;100.00
9899;BME280;4988;49.238;6.698;2022-07-23T01:24:16;99111.00;;;20.77;100.00
9899;BME280;4988;49.238;6.698;2022-07-23T01:26:43;99131.50;;;20.49;100.00
9899;BME280;4988;49.238;6.698;2022-07-23T01:29:09;99152.97;;;20.19;100.00
9899;BME280;4988;49.238;6.698;2022-07-23T01:31:35;99168.63;;;19.83;100.00
9899;BME280;4988;49.238;6.698;2022-07-23T01:34:00;99176.75;;;19.60;100.00
9899;BME280;4988;49.238;6.698;2022-07-23T01:36:26;99172.66;;;19.45;100.00
9899;BME280;4988;49.238;6.698;2022-07-23T01:38:51;99163.81;;;19.43;100.00
9899;BME280;4988;49.238;6.698;2022-07-23T01:41:17;99151.81;;;19.68;100.00
9899;BME280;4988;49.238;6.698;2022-07-23T01:43:42;99140.75;;;19.71;100.00
9899;BME280;4988;49.238;6.698;2022-07-23T01:46:08;99133.97;;;19.88;100.00
9899;BME280;4988;49.238;6.698;2022-07-23T01:48:33;99133.97;;;19.88;100.00
9899;BME280;4988;49.238;6.698;2022-07-23T01:50:58;99144.03;;;19.86;100.00
9899;BME280;4988;49.238;6.698;2022-07-23T01:53:24;99137.34;;;20.02;100.00
9899;BME280;4988;49.238;6.698;2022-07-23T01:55:49;99149.59;;;20.06;100.00
9899;BME280;4988;49.238;6.698;2022-07-23T01:58:15;99121.06;;;20.13;100.00
9899;BME280;4988;49.238;6.698;2022-07-23T02:00:40;99105.88;;;20.22;100.00
9899;BME280;4988;49.238;6.698;2022-07-23T02:03:06;99111.47;;;20.30;100.00
9899;BME280;4988;49.238;6.698;2022-07-23T02:05:31;99099.53;;;20.33;100.00
9899;BME280;4988;49.238;6.698;2022-07-23T02:07:58;99096.69;;;20.34;100.00
9899;BME280;4988;49.238;6.698;2022-07-23T02:10:24;99113.16;;;20.31;100.00
9899;BME280;4988;49.238;6.698;2022-07-23T02:12:50;99116.69;;;20.22;100.00
9899;BME280;4988;49.238;6.698;2022-07-23T02:15:15;99103.38;;;20.30;100.00
9899;BME280;4988;49.238;6.698;2022-07-23T02:17:41;99104.88;;;20.23;100.00
9899;BME280;4988;49.238;6.698;2022-07-23T02:20:07;99119.38;;;20.22;100.00
9899;BME280;4988;49.238;6.698;2022-07-23T02:22:33;99119.78;;;19.96;100.00
9899;BME280;4988;49.238;6.698;2022-07-23T02:24:59;99115.19;;;19.75;100.00
9899;BME280;4988;49.238;6.698;2022-07-23T02:27:24;99110.78;;;19.74;100.00
9899;BME280;4988;49.238;6.698;2022-07-23T02:29:50;99098.94;;;19.87;100.00
9899;BME280;4988;49.238;6.698;2022-07-23T02:32:15;99094.16;;;19.90;100.00
9899;BME280;4988;49.238;6.698;2022-07-23T02:34:41;99100.19;;;19.83;100.00
9899;BME280;4988;49.238;6.698;2022-07-23T02:37:06;99105.03;;;19.68;100.00
9899;BME280;4988;49.238;6.698;2022-07-23T02:39:34;99123.13;;;19.67;100.00
9899;BME280;4988;49.238;6.698;2022-07-23T02:41:59;99115.78;;;19.58;100.00
9899;BME280;4988;49.238;6.698;2022-07-23T02:44:24;99112.34;;;19.56;100.00
9899;BME280;4988;49.238;6.698;2022-07-23T02:46:50;99112.56;;;19.64;100.00
9899;BME280;4988;49.238;6.698;2022-07-23T02:49:15;99100.97;;;19.73;100.00
9899;BME280;4988;49.238;6.698;2022-07-23T02:51:40;99093.81;;;19.84;100.00
9899;BME280;4988;49.238;6.698;2022-07-23T02:54:06;99084.22;;;19.91;100.00
9899;BME280;4988;49.238;6.698;2022-07-23T02:56:31;99071.75;;;20.00;100.00
9899;BME280;4988;49.238;6.698;2022-07-23T02:58:57;99074.59;;;19.98;100.00
9899;BME280;4988;49.238;6.698;2022-07-23T03:01:22;99077.22;;;20.09;100.00
9899;BME280;4988;49.238;6.698;2022-07-23T03:03:47;99078.88;;;20.01;100.00
9899;BME280;4988;49.238;6.698;2022-07-23T03:06:13;99083.09;;;19.93;100.00
9899;BME280;4988;49.238;6.698;2022-07-23T03:08:38;99085.41;;;19.98;100.00
9899;BME280;4988;49.238;6.698;2022-07-23T03:11:04;99086.53;;;19.96;100.00
9899;BME280;4988;49.238;6.698;2022-07-23T03:13:31;99093.63;;;19.97;100.00
9899;BME280;4988;49.238;6.698;2022-07-23T03:15:57;99088.50;;;19.93;100.00
9899;BME280;4988;49.238;6.698;2022-07-23T03:18:22;99092.19;;;19.92;100.00
9899;BME280;4988;49.238;6.698;2022-07-23T03:20:48;99090.84;;;19.87;100.00
9899;BME280;4988;49.238;6.698;2022-07-23T03:23:13;99090.31;;;19.93;100.00
9899;BME280;4988;49.238;6.698;2022-07-23T03:25:38;99084.53;;;19.98;100.00
9899;BME280;4988;49.238;6.698;2022-07-23T03:28:04;99099.22;;;19.84;100.00
9899;BME280;4988;49.238;6.698;2022-07-23T03:30:29;99097.16;;;19.76;100.00
9899;BME280;4988;49.238;6.698;2022-07-23T03:32:54;99113.63;;;19.73;100.00
9899;BME280;4988;49.238;6.698;2022-07-23T03:35:20;99112.94;;;19.59;100.00
9899;BME280;4988;49.238;6.698;2022-07-23T03:37:45;99109.78;;;19.54;100.00
9899;BME280;4988;49.238;6.698;2022-07-23T03:40:11;99106.31;;;19.52;100.00
9899;BME280;4988;49.238;6.698;2022-07-23T03:42:36;99106.09;;;19.55;100.00
9899;BME280;4988;49.238;6.698;2022-07-23T03:45:03;99109.25;;;19.60;100.00
9899;BME280;4988;49.238;6.698;2022-07-23T03:47:29;99109.63;;;19.56;100.00
9899;BME280;4988;49.238;6.698;2022-07-23T03:49:54;99114.25;;;19.44;100.00
9899;BME280;4988;49.238;6.698;2022-07-23T03:52:19;99122.34;;;19.33;100.00
9899;BME280;4988;49.238;6.698;2022-07-23T03:54:45;99122.38;;;19.21;100.00
9899;BME280;4988;49.238;6.698;2022-07-23T03:57:10;99117.75;;;19.12;100.00
9899;BME280;4988;49.238;6.698;2022-07-23T03:59:35;99116.63;;;19.26;100.00
9899;BME280;4988;49.238;6.698;2022-07-23T04:02:01;99116.25;;;19.31;100.00
9899;BME280;4988;49.238;6.698;2022-07-23T04:04:26;99120.91;;;19.28;100.00
9899;BME280;4988;49.238;6.698;2022-07-23T04:06:51;99112.25;;;19.46;100.00
9899;BME280;4988;49.238;6.698;2022-07-23T04:09:17;99120.84;;;19.51;100.00
9899;BME280;4988;49.238;6.698;2022-07-23T04:11:42;99133.50;;;19.39;100.00
9899;BME280;4988;49.238;6.698;2022-07-23T04:14:07;99125.44;;;19.28;100.00
9899;BME280;4988;49.238;6.698;2022-07-23T04:16:33;99132.47;;;19.19;100.00
9899;BME280;4988;49.238;6.698;2022-07-23T04:18:58;99134.91;;;19.22;100.00
9899;BME280;4988;49.238;6.698;2022-07-23T04:21:24;99134.88;;;19.34;100.00
9899;BME280;4988;49.238;6.698;2022-07-23T04:23:49;99146.53;;;19.34;100.00
9899;BME280;4988;49.238;6.698;2022-07-23T04:26:15;99151.28;;;19.42;100.00
9899;BME280;4988;49.238;6.698;2022-07-23T04:28:40;99154.75;;;19.33;100.00
9899;BME280;4988;49.238;6.698;2022-07-23T04:31:06;99162.00;;;19.32;100.00
9899;BME280;4988;49.238;6.698;2022-07-23T04:33:31;99174.63;;;19.20;100.00
9899;BME280;4988;49.238;6.698;2022-07-23T04:35:57;99174.94;;;19.06;100.00
9899;BME280;4988;49.238;6.698;2022-07-23T04:38:22;99180.22;;;18.96;100.00
9899;BME280;4988;49.238;6.698;2022-07-23T04:40:47;99172.13;;;18.96;100.00
9899;BME280;4988;49.238;6.698;2022-07-23T04:43:13;99171.13;;;18.97;100.00
9899;BME280;4988;49.238;6.698;2022-07-23T04:45:38;99169.75;;;19.03;100.00
9899;BME280;4988;49.238;6.698;2022-07-23T04:48:04;99175.88;;;19.16;100.00
9899;BME280;4988;49.238;6.698;2022-07-23T04:50:29;99179.53;;;19.26;100.00
9899;BME280;4988;49.238;6.698;2022-07-23T04:52:54;99183.72;;;19.31;100.00
9899;BME280;4988;49.238;6.698;2022-07-23T04:55:20;99196.34;;;19.30;100.00
9899;BME280;4988;49.238;6.698;2022-07-23T04:57:45;99195.75;;;19.38;100.00
9899;BME280;4988;49.238;6.698;2022-07-23T05:00:11;99182.19;;;19.49;100.00
9899;BME280;4988;49.238;6.698;2022-07-23T05:02:36;99203.28;;;19.55;100.00
9899;BME280;4988;49.238;6.698;2022-07-23T05:05:02;99205.44;;;19.73;100.00
9899;BME280;4988;49.238;6.698;2022-07-23T05:07:27;99204.84;;;19.69;100.00
9899;BME280;4988;49.238;6.698;2022-07-23T05:09:52;99198.56;;;19.80;100.00
9899;BME280;4988;49.238;6.698;2022-07-23T05:12:18;99196.47;;;19.84;100.00
9899;BME280;4988;49.238;6.698;2022-07-23T05:14:43;99192.44;;;19.89;100.00
9899;BME280;4988;49.238;6.698;2022-07-23T05:17:08;99195.84;;;19.91;100.00
9899;BME280;4988;49.238;6.698;2022-07-23T05:19:34;99190.44;;;19.91;100.00
9899;BME280;4988;49.238;6.698;2022-07-23T05:22:00;99203.41;;;19.98;100.00
9899;BME280;4988;49.238;6.698;2022-07-23T05:24:25;99197.22;;;19.86;100.00
9899;BME280;4988;49.238;6.698;2022-07-23T05:26:50;99207.31;;;19.72;100.00
9899;BME280;4988;49.238;6.698;2022-07-23T05:29:16;99210.75;;;19.63;100.00
9899;BME280;4988;49.238;6.698;2022-07-23T05:31:41;99207.81;;;19.55;100.00
9899;BME280;4988;49.238;6.698;2022-07-23T05:34:06;99211.41;;;19.55;100.00
9899;BME280;4988;49.238;6.698;2022-07-23T05:36:32;99217.16;;;19.51;100.00
9899;BME280;4988;49.238;6.698;2022-07-23T05:38:58;99220.75;;;19.51;100.00
9899;BME280;4988;49.238;6.698;2022-07-23T05:41:23;99220.84;;;19.50;100.00
9899;BME280;4988;49.238;6.698;2022-07-23T05:43:49;99222.94;;;19.46;100.00
9899;BME280;4988;49.238;6.698;2022-07-23T05:46:15;99223.94;;;19.45;100.00
9899;BME280;4988;49.238;6.698;2022-07-23T05:48:40;99221.50;;;19.42;100.00
9899;BME280;4988;49.238;6.698;2022-07-23T05:51:07;99221.13;;;19.47;100.00
9899;BME280;4988;49.238;6.698;2022-07-23T05:53:33;99232.03;;;19.56;100.00
9899;BME280;4988;49.238;6.698;2022-07-23T05:55:59;99236.19;;;19.60;100.00
9899;BME280;4988;49.238;6.698;2022-07-23T05:58:24;99230.78;;;19.60;100.00
9899;BME280;4988;49.238;6.698;2022-07-23T06:00:50;99236.66;;;19.66;100.00
9899;BME280;4988;49.238;6.698;2022-07-23T06:03:15;99236.41;;;19.69;100.00
9899;BME280;4988;49.238;6.698;2022-07-23T06:05:40;99232.47;;;19.73;100.00
9899;BME280;4988;49.238;6.698;2022-07-23T06:08:06;99237.63;;;19.76;100.00
9899;BME280;4988;49.238;6.698;2022-07-23T06:10:31;99237.50;;;19.77;100.00
9899;BME280;4988;49.238;6.698;2022-07-23T06:12:56;99242.16;;;19.75;100.00
9899;BME280;4988;49.238;6.698;2022-07-23T06:15:22;99239.31;;;19.77;100.00
9899;BME280;4988;49.238;6.698;2022-07-23T06:17:47;99246.34;;;19.80;100.00
9899;BME280;4988;49.238;6.698;2022-07-23T06:20:12;99247.41;;;19.77;100.00
9899;BME280;4988;49.238;6.698;2022-07-23T06:22:38;99251.38;;;19.73;100.00
9899;BME280;4988;49.238;6.698;2022-07-23T06:25:04;99249.53;;;19.73;100.00
9899;BME280;4988;49.238;6.698;2022-07-23T06:27:30;99248.44;;;19.76;100.00
9899;BME280;4988;49.238;6.698;2022-07-23T06:29:55;99255.06;;;19.83;100.00
9899;BME280;4988;49.238;6.698;2022-07-23T06:32:21;99245.72;;;19.87;100.00
9899;BME280;4988;49.238;6.698;2022-07-23T06:34:46;99246.56;;;19.88;100.00
9899;BME280;4988;49.238;6.698;2022-07-23T06:37:12;99241.38;;;19.96;100.00
9899;BME280;4988;49.238;6.698;2022-07-23T06:39:37;99257.22;;;20.01;100.00
9899;BME280;4988;49.238;6.698;2022-07-23T06:42:02;99261.22;;;20.06;100.00
9899;BME280;4988;49.238;6.698;2022-07-23T06:44:28;99257.31;;;20.11;100.00
9899;BME280;4988;49.238;6.698;2022-07-23T06:46:53;99261.31;;;20.16;100.00
9899;BME280;4988;49.238;6.698;2022-07-23T06:49:18;99259.72;;;20.14;100.00
9899;BME280;4988;49.238;6.698;2022-07-23T06:51:44;99267.69;;;20.27;100.00
9899;BME280;4988;49.238;6.698;2022-07-23T06:54:10;99265.91;;;20.37;100.00
9899;BME280;4988;49.238;6.698;2022-07-23T06:56:35;99270.06;;;20.41;100.00
9899;BME280;4988;49.238;6.698;2022-07-23T06:59:01;99275.06;;;20.46;100.00
9899;BME280;4988;49.238;6.698;2022-07-23T07:01:26;99282.19;;;20.68;99.80
9899;BME280;4988;49.238;6.698;2022-07-23T07:03:52;99279.06;;;20.84;99.08
9899;BME280;4988;49.238;6.698;2022-07-23T07:06:17;99281.97;;;20.92;97.86
9899;BME280;4988;49.238;6.698;2022-07-23T07:08:43;99282.81;;;20.93;96.73
9899;BME280;4988;49.238;6.698;2022-07-23T07:11:09;99290.00;;;21.03;96.57
9899;BME280;4988;49.238;6.698;2022-07-23T07:13:36;99293.88;;;21.11;95.31
9899;BME280;4988;49.238;6.698;2022-07-23T07:16:01;99283.38;;;21.17;95.50
9899;BME280;4988;49.238;6.698;2022-07-23T07:18:26;99289.50;;;21.19;94.93
9899;BME280;4988;49.238;6.698;2022-07-23T07:20:52;99288.28;;;21.33;97.23
9899;BME280;4988;49.238;6.698;2022-07-23T07:23:18;99285.53;;;21.55;93.35
9899;BME280;4988;49.238;6.698;2022-07-23T07:25:43;99295.50;;;21.54;93.33
9899;BME280;4988;49.238;6.698;2022-07-23T07:28:08;99294.00;;;21.71;91.73
9899;BME280;4988;49.238;6.698;2022-07-23T07:30:34;99291.34;;;21.91;90.90
9899;BME280;4988;49.238;6.698;2022-07-23T07:32:59;99288.50;;;22.02;89.27
9899;BME280;4988;49.238;6.698;2022-07-23T07:35:25;99294.63;;;21.84;89.01
9899;BME280;4988;49.238;6.698;2022-07-23T07:37:51;99300.59;;;21.78;89.88
9899;BME280;4988;49.238;6.698;2022-07-23T07:40:16;99300.19;;;21.93;89.79
9899;BME280;4988;49.238;6.698;2022-07-23T07:42:50;99297.22;;;22.15;89.20
9899;BME280;4988;49.238;6.698;2022-07-23T07:45:16;99293.09;;;22.21;88.44
9899;BME280;4988;49.238;6.698;2022-07-23T07:47:41;99294.53;;;22.25;86.82
9899;BME280;4988;49.238;6.698;2022-07-23T07:50:07;99291.81;;;22.25;86.79
9899;BME280;4988;49.238;6.698;2022-07-23T07:52:34;99302.94;;;22.32;86.14
9899;BME280;4988;49.238;6.698;2022-07-23T07:55:02;99305.38;;;22.35;85.66
9899;BME280;4988;49.238;6.698;2022-07-23T07:57:28;99310.09;;;22.43;86.12
9899;BME280;4988;49.238;6.698;2022-07-23T07:59:53;99304.00;;;22.51;82.85
9899;BME280;4988;49.238;6.698;2022-07-23T08:02:18;99307.38;;;22.62;84.03
9899;BME280;4988;49.238;6.698;2022-07-23T08:04:44;99308.50;;;22.79;82.45
9899;BME280;4988;49.238;6.698;2022-07-23T08:07:10;99311.38;;;22.88;80.80
9899;BME280;4988;49.238;6.698;2022-07-23T08:09:36;99313.16;;;23.07;80.53
9899;BME280;4988;49.238;6.698;2022-07-23T08:12:02;99312.31;;;23.26;81.59
9899;BME280;4988;49.238;6.698;2022-07-23T08:14:27;99313.47;;;23.51;80.30
9899;BME280;4988;49.238;6.698;2022-07-23T08:16:52;99305.31;;;23.13;78.07
9899;BME280;4988;49.238;6.698;2022-07-23T08:19:18;99302.72;;;23.12;78.26
9899;BME280;4988;49.238;6.698;2022-07-23T08:21:43;99308.31;;;23.10;78.43
9899;BME280;4988;49.238;6.698;2022-07-23T08:24:09;99300.84;;;23.32;78.28
9899;BME280;4988;49.238;6.698;2022-07-23T08:26:35;99309.25;;;23.67;78.67
9899;BME280;4988;49.238;6.698;2022-07-23T08:29:01;99302.44;;;23.81;75.05
9899;BME280;4988;49.238;6.698;2022-07-23T08:31:26;99307.88;;;23.81;71.23
9899;BME280;4988;49.238;6.698;2022-07-23T08:33:51;99312.72;;;23.87;70.52
9899;BME280;4988;49.238;6.698;2022-07-23T08:36:17;99304.69;;;23.95;70.59
9899;BME280;4988;49.238;6.698;2022-07-23T08:38:42;99313.00;;;23.93;68.96
9899;BME280;4988;49.238;6.698;2022-07-23T08:41:09;99313.25;;;23.90;67.85
9899;BME280;4988;49.238;6.698;2022-07-23T08:43:34;99306.34;;;24.06;69.06
9899;BME280;4988;49.238;6.698;2022-07-23T08:46:01;99305.66;;;24.22;69.97
9899;BME280;4988;49.238;6.698;2022-07-23T08:48:29;99310.47;;;24.28;70.43
9899;BME280;4988;49.238;6.698;2022-07-23T08:50:57;99306.66;;;24.39;70.67
9899;BME280;4988;49.238;6.698;2022-07-23T08:53:24;99308.28;;;24.50;70.19
9899;BME280;4988;49.238;6.698;2022-07-23T08:55:53;99307.66;;;24.56;70.61
9899;BME280;4988;49.238;6.698;2022-07-23T08:58:20;99300.88;;;24.78;68.84
9899;BME280;4988;49.238;6.698;2022-07-23T09:00:46;99307.84;;;24.99;66.93
9899;BME280;4988;49.238;6.698;2022-07-23T09:03:18;99312.75;;;24.95;65.80
9899;BME280;4988;49.238;6.698;2022-07-23T09:05:44;99303.94;;;25.01;65.26
9899;BME280;4988;49.238;6.698;2022-07-23T09:08:17;99309.63;;;25.08;64.38
9899;BME280;4988;49.238;6.698;2022-07-23T09:13:42;99301.91;;;25.30;64.47
9899;BME280;4988;49.238;6.698;2022-07-23T09:18:59;99305.50;;;25.30;62.51
9899;BME280;4988;49.238;6.698;2022-07-23T09:21:26;99301.00;;;25.21;62.78
9899;BME280;4988;49.238;6.698;2022-07-23T09:31:16;99297.78;;;24.99;63.23
9899;BME280;4988;49.238;6.698;2022-07-23T09:33:41;99304.91;;;25.18;61.85
9899;BME280;4988;49.238;6.698;2022-07-23T09:36:07;99300.69;;;25.50;62.29
9899;BME280;4988;49.238;6.698;2022-07-23T09:38:34;99305.34;;;25.66;59.79
9899;BME280;4988;49.238;6.698;2022-07-23T09:41:12;99300.47;;;25.44;60.50
9899;BME280;4988;49.238;6.698;2022-07-23T09:43:38;99306.25;;;25.41;60.55
9899;BME280;4988;49.238;6.698;2022-07-23T09:46:17;99306.16;;;25.32;60.87
9899;BME280;4988;49.238;6.698;2022-07-23T09:48:44;99305.06;;;25.43;61.82
9899;BME280;4988;49.238;6.698;2022-07-23T09:51:09;99310.31;;;25.36;61.46
9899;BME280;4988;49.238;6.698;2022-07-23T09:53:34;99315.13;;;25.43;61.34
9899;BME280;4988;49.238;6.698;2022-07-23T09:56:00;99316.38;;;25.57;60.76
9899;BME280;4988;49.238;6.698;2022-07-23T09:58:26;99323.81;;;25.81;61.67
9899;BME280;4988;49.238;6.698;2022-07-23T10:00:52;99327.25;;;25.91;58.95
9899;BME280;4988;49.238;6.698;2022-07-23T10:03:19;99322.28;;;25.87;60.42
9899;BME280;4988;49.238;6.698;2022-07-23T10:05:45;99329.94;;;25.75;61.42
9899;BME280;4988;49.238;6.698;2022-07-23T10:08:12;99330.13;;;25.81;60.16
9899;BME280;4988;49.238;6.698;2022-07-23T10:10:39;99323.72;;;25.56;60.15
9899;BME280;4988;49.238;6.698;2022-07-23T10:13:05;99339.25;;;25.37;60.24
9899;BME280;4988;49.238;6.698;2022-07-23T10:15:50;99326.66;;;25.36;60.73
9899;BME280;4988;49.238;6.698;2022-07-23T10:18:16;99328.78;;;25.51;58.87
9899;BME280;4988;49.238;6.698;2022-07-23T10:20:42;99331.75;;;25.66;56.84
9899;BME280;4988;49.238;6.698;2022-07-23T10:23:22;99327.25;;;25.91;58.23
9899;BME280;4988;49.238;6.698;2022-07-23T10:25:58;99329.31;;;25.97;56.54
9899;BME280;4988;49.238;6.698;2022-07-23T10:28:46;99322.25;;;26.21;56.18
9899;BME280;4988;49.238;6.698;2022-07-23T10:36:49;99324.00;;;26.63;52.87
9899;BME280;4988;49.238;6.698;2022-07-23T10:44:48;99315.47;;;26.91;53.82
9899;BME280;4988;49.238;6.698;2022-07-23T10:47:30;99316.81;;;27.04;52.22
9899;BME280;4988;49.238;6.698;2022-07-23T10:50:17;99318.03;;;27.09;51.37
9899;BME280;4988;49.238;6.698;2022-07-23T10:58:00;99318.06;;;26.76;53.03
9899;BME280;4988;49.238;6.698;2022-07-23T11:00:27;99319.38;;;26.47;53.13
9899;BME280;4988;49.238;6.698;2022-07-23T11:02:59;99319.75;;;26.61;52.82
9899;BME280;4988;49.238;6.698;2022-07-23T11:05:42;99317.47;;;26.40;53.53
9899;BME280;4988;49.238;6.698;2022-07-23T11:16:16;99315.47;;;26.91;51.89
9899;BME280;4988;49.238;6.698;2022-07-23T11:24:08;99317.19;;;27.09;50.91
9899;BME280;4988;49.238;6.698;2022-07-23T11:26:56;99323.13;;;27.12;50.65
9899;BME280;4988;49.238;6.698;2022-07-23T11:32:00;99318.22;;;26.91;51.34
9899;BME280;4988;49.238;6.698;2022-07-23T11:34:30;99322.97;;;27.06;50.97
9899;BME280;4988;49.238;6.698;2022-07-23T11:36:57;99315.16;;;26.94;51.18
9899;BME280;4988;49.238;6.698;2022-07-23T11:39:25;99323.53;;;26.93;51.28
9899;BME280;4988;49.238;6.698;2022-07-23T11:41:52;99318.03;;;27.01;51.61
9899;BME280;4988;49.238;6.698;2022-07-23T11:44:27;99315.31;;;26.76;52.50
9899;BME280;4988;49.238;6.698;2022-07-23T11:47:00;99311.06;;;26.82;52.31
9899;BME280;4988;49.238;6.698;2022-07-23T11:49:26;99305.09;;;26.78;50.46
9899;BME280;4988;49.238;6.698;2022-07-23T11:52:12;99304.03;;;26.88;51.07
9899;BME280;4988;49.238;6.698;2022-07-23T11:55:00;99309.50;;;27.04;50.74
9899;BME280;4988;49.238;6.698;2022-07-23T11:57:28;99310.19;;;26.81;50.46
9899;BME280;4988;49.238;6.698;2022-07-23T12:00:02;99308.50;;;26.80;50.20
9899;BME280;4988;49.238;6.698;2022-07-23T12:02:29;99304.22;;;26.94;49.80
9899;BME280;4988;49.238;6.698;2022-07-23T12:04:54;99307.63;;;26.80;49.58
9899;BME280;4988;49.238;6.698;2022-07-23T12:07:37;99304.72;;;26.65;49.72
9899;BME280;4988;49.238;6.698;2022-07-23T12:10:09;99306.44;;;26.74;49.98
9899;BME280;4988;49.238;6.698;2022-07-23T12:12:43;99304.88;;;26.96;48.63
9899;BME280;4988;49.238;6.698;2022-07-23T12:15:11;99305.03;;;27.11;47.88
9899;BME280;4988;49.238;6.698;2022-07-23T12:17:38;99303.44;;;27.42;48.05
9899;BME280;4988;49.238;6.698;2022-07-23T12:20:06;99300.88;;;27.49;47.20
9899;BME280;4988;49.238;6.698;2022-07-23T12:22:44;99301.56;;;27.34;48.53
9899;BME280;4988;49.238;6.698;2022-07-23T12:25:12;99308.22;;;27.32;49.07
9899;BME280;4988;49.238;6.698;2022-07-23T12:27:38;99311.31;;;27.45;46.89
9899;BME280;4988;49.238;6.698;2022-07-23T12:30:24;99311.22;;;27.70;45.40
9899;BME280;4988;49.238;6.698;2022-07-23T12:32:53;99303.13;;;27.76;44.72
9899;BME280;4988;49.238;6.698;2022-07-23T12:35:20;99303.13;;;27.76;45.25
9899;BME280;4988;49.238;6.698;2022-07-23T12:37:48;99305.63;;;27.38;46.21
9899;BME280;4988;49.238;6.698;2022-07-23T12:40:27;99308.91;;;27.34;47.23
9899;BME280;4988;49.238;6.698;2022-07-23T12:43:04;99304.50;;;27.16;48.23
9899;BME280;4988;49.238;6.698;2022-07-23T12:45:53;99307.09;;;27.09;48.82
9899;BME280;4988;49.238;6.698;2022-07-23T12:49:07;99308.91;;;27.34;48.50
9899;BME280;4988;49.238;6.698;2022-07-23T12:51:37;99311.06;;;27.63;48.72
9899;BME280;4988;49.238;6.698;2022-07-23T12:54:07;99309.03;;;27.97;47.48
9899;BME280;4988;49.238;6.698;2022-07-23T12:56:35;99303.72;;;28.27;47.10
9899;BME280;4988;49.238;6.698;2022-07-23T12:59:06;99310.06;;;28.27;45.55
9899;BME280;4988;49.238;6.698;2022-07-23T13:01:36;99303.88;;;28.33;45.35
9899;BME280;4988;49.238;6.698;2022-07-23T13:04:20;99306.78;;;28.32;45.54
9899;BME280;4988;49.238;6.698;2022-07-23T13:06:49;99317.19;;;28.05;46.78
9899;BME280;4988;49.238;6.698;2022-07-23T13:09:18;99311.09;;;27.95;47.28
9899;BME280;4988;49.238;6.698;2022-07-23T13:11:44;99310.81;;;27.81;47.22
9899;BME280;4988;49.238;6.698;2022-07-23T13:14:11;99309.16;;;27.72;47.30
9899;BME280;4988;49.238;6.698;2022-07-23T13:16:38;99306.75;;;27.69;47.67
9899;BME280;4988;49.238;6.698;2022-07-23T13:19:03;99310.72;;;27.66;47.93
9899;BME280;4988;49.238;6.698;2022-07-23T13:21:29;99303.84;;;27.70;48.26
9899;BME280;4988;49.238;6.698;2022-07-23T13:23:56;99312.50;;;27.82;47.82
9899;BME280;4988;49.238;6.698;2022-07-23T13:26:22;99311.50;;;27.83;47.95
9899;BME280;4988;49.238;6.698;2022-07-23T13:28:49;99313.81;;;27.95;47.14
9899;BME280;4988;49.238;6.698;2022-07-23T13:31:15;99321.41;;;27.84;48.67
9899;BME280;4988;49.238;6.698;2022-07-23T13:33:41;99312.22;;;27.69;49.47
9899;BME280;4988;49.238;6.698;2022-07-23T13:36:06;99309.81;;;27.74;48.15
9899;BME280;4988;49.238;6.698;2022-07-23T13:38:32;99315.22;;;27.90;48.53
9899;BME280;4988;49.238;6.698;2022-07-23T13:40:57;99308.59;;;28.16;47.47
9899;BME280;4988;49.238;6.698;2022-07-23T13:43:24;99311.66;;;28.45;46.92
9899;BME280;4988;49.238;6.698;2022-07-23T13:45:51;99307.75;;;28.62;46.68
9899;BME280;4988;49.238;6.698;2022-07-23T13:48:17;99306.31;;;28.75;45.42
9899;BME280;4988;49.238;6.698;2022-07-23T13:50:43;99302.34;;;28.77;45.83
9899;BME280;4988;49.238;6.698;2022-07-23T13:53:12;99308.78;;;28.61;46.18
9899;BME280;4988;49.238;6.698;2022-07-23T13:55:38;99312.06;;;28.56;45.39
9899;BME280;4988;49.238;6.698;2022-07-23T13:58:04;99301.78;;;28.59;45.37
9899;BME280;4988;49.238;6.698;2022-07-23T14:00:31;99312.16;;;28.48;46.19
9899;BME280;4988;49.238;6.698;2022-07-23T14:02:59;99300.22;;;28.41;45.28